Time;durP1;ratioP1;P1;durP2;ratioP2;P2;SDS_P1;SDS_P2;PMS_P1;PMS_P2;Temp;Humidity;BMP_temperature;BMP_pressure;BME280_temperature;BME280_humidity;BME280_pressure;Samples;Min_cycle;Max_cycle;Signal;HPM_P1;HPM_P2
2023/11/03 00:01:19;;;;;;;4.60;4.30;;;7.80;99.90;;;;;;4974975;28;20229;-63
2023/11/03 00:03:46;;;;;;;4.23;4.03;;;7.70;99.90;;;;;;4972174;28;20203;-63
2023/11/03 00:06:14;;;;;;;4.50;4.30;;;7.70;99.90;;;;;;4975564;28;20249;-62
2023/11/03 00:08:42;;;;;;;5.23;4.93;;;7.70;99.90;;;;;;4975699;28;20291;-63
2023/11/03 00:11:09;;;;;;;5.07;4.57;;;7.80;99.90;;;;;;4975683;28;20262;-63
2023/11/03 00:13:36;;;;;;;3.70;3.50;;;7.60;99.90;;;;;;4979249;28;20215;-62
2023/11/03 00:16:04;;;;;;;4.33;4.03;;;;;;;;;;4979080;28;20204;-63
2023/11/03 00:18:32;;;;;;;5.13;4.73;;;7.90;99.90;;;;;;4994948;28;20222;-63
2023/11/03 00:21:00;;;;;;;4.33;4.13;;;;;;;;;;4995180;28;20221;-63
2023/11/03 00:23:27;;;;;;;5.00;4.70;;;7.60;99.90;;;;;;4990309;28;20215;-63
2023/11/03 00:25:54;;;;;;;5.60;5.10;;;;;;;;;;4981190;28;20265;-63
2023/11/03 00:28:22;;;;;;;4.53;4.23;;;7.70;99.90;;;;;;4983562;28;20253;-64
2023/11/03 00:30:49;;;;;;;5.07;4.37;;;7.60;99.90;;;;;;4975614;28;20226;-62
2023/11/03 00:33:17;;;;;;;4.27;4.07;;;7.60;99.90;;;;;;4974494;28;20692;-63
2023/11/03 00:35:46;;;;;;;4.50;4.20;;;7.60;99.90;;;;;;4984148;28;20725;-63
2023/11/03 00:38:13;;;;;;;4.80;4.50;;;7.70;99.90;;;;;;4988320;28;20218;-63
2023/11/03 00:40:40;;;;;;;5.13;4.83;;;7.60;99.90;;;;;;4986346;28;20265;-63
2023/11/03 00:43:07;;;;;;;4.40;4.00;;;7.70;99.90;;;;;;4991854;28;20263;-63
2023/11/03 00:45:34;;;;;;;5.60;5.20;;;7.60;99.90;;;;;;4982661;28;20261;-63
2023/11/03 00:48:01;;;;;;;5.67;5.27;;;7.70;99.90;;;;;;4993866;28;20206;-63
2023/11/03 00:50:28;;;;;;;5.23;4.83;;;;;;;;;;4988648;28;20220;-62
2023/11/03 00:52:56;;;;;;;5.87;5.27;;;7.70;99.90;;;;;;4985702;28;20202;-63
2023/11/03 00:55:23;;;;;;;5.30;4.80;;;7.80;99.90;;;;;;4982612;28;20214;-63
2023/11/03 00:57:50;;;;;;;5.30;5.00;;;7.80;99.90;;;;;;4992861;28;20223;-63
2023/11/03 01:00:17;;;;;;;5.70;5.20;;;7.80;99.90;;;;;;4994133;28;20797;-63
2023/11/03 01:02:44;;;;;;;5.37;4.97;;;7.80;99.90;;;;;;4993474;28;20743;-62
2023/11/03 01:05:14;;;;;;;6.07;5.67;;;7.80;99.90;;;;;;4977259;28;20250;-63
2023/11/03 01:07:41;;;;;;;5.47;5.13;;;;;;;;;;4994040;28;20208;-63
2023/11/03 01:10:10;;;;;;;6.30;5.67;;;7.70;99.90;;;;;;4993804;28;20309;-63
2023/11/03 01:12:37;;;;;;;5.77;5.47;;;7.80;99.90;;;;;;4986772;28;20206;-63
2023/11/03 01:15:06;;;;;;;6.17;5.67;;;7.70;99.90;;;;;;4976617;28;20211;-63
2023/11/03 01:17:35;;;;;;;6.30;5.80;;;7.70;99.90;;;;;;4981162;28;20764;-63
2023/11/03 01:20:02;;;;;;;5.20;4.90;;;7.70;99.90;;;;;;4974174;28;20273;-63
2023/11/03 01:22:29;;;;;;;5.43;5.03;;;7.60;99.90;;;;;;4974241;28;20209;-64
2023/11/03 01:24:56;;;;;;;5.43;5.03;;;7.70;99.90;;;;;;4981002;28;20271;-63
2023/11/03 01:27:24;;;;;;;6.03;5.57;;;7.70;99.90;;;;;;4988325;28;20264;-63
2023/11/03 01:29:51;;;;;;;5.93;5.47;;;7.70;99.90;;;;;;4981461;28;20257;-63
2023/11/03 01:32:19;;;;;;;6.40;5.90;;;;;;;;;;4987561;28;20217;-63
2023/11/03 01:34:46;;;;;;;6.30;5.70;;;7.70;99.90;;;;;;4975602;28;20215;-63
2023/11/03 01:37:14;;;;;;;5.53;5.23;;;;;;;;;;4974082;28;20199;-63
2023/11/03 01:39:41;;;;;;;6.83;6.23;;;7.70;99.90;;;;;;4980759;28;20226;-63
2023/11/03 01:42:09;;;;;;;5.13;4.83;;;;;;;;;;4986209;28;20262;-63
2023/11/03 01:44:37;;;;;;;5.93;5.43;;;;;;;;;;4980856;28;20211;-63
2023/11/03 01:47:05;;;;;;;5.53;5.17;;;;;;;;;;4969836;28;20265;-63
2023/11/03 01:49:32;;;;;;;5.90;5.47;;;;;;;;;;4973660;28;20270;-63
2023/11/03 01:52:00;;;;;;;5.50;5.00;;;;;;;;;;4980400;28;20265;-63
2023/11/03 01:54:27;;;;;;;4.93;4.53;;;;;;;;;;4983864;28;20202;-63
2023/11/03 01:56:55;;;;;;;5.40;5.00;;;;;;;;;;4984867;28;20203;-63
2023/11/03 01:59:22;;;;;;;4.47;4.20;;;;;;;;;;4992846;28;20226;-63
2023/11/03 02:01:52;;;;;;;3.53;3.30;;;7.70;99.90;;;;;;4992733;28;21000;-63
2023/11/03 02:04:20;;;;;;;3.97;3.67;;;7.70;99.90;;;;;;4979044;28;20257;-63
2023/11/03 02:06:47;;;;;;;4.00;3.80;;;7.70;99.90;;;;;;4973424;28;20230;-64
2023/11/03 02:09:14;;;;;;;3.63;3.43;;;7.70;99.90;;;;;;4980489;28;20253;-63
2023/11/03 02:11:44;;;;;;;3.50;3.30;;;7.70;99.90;;;;;;4989828;28;20247;-62
2023/11/03 02:14:11;;;;;;;3.30;3.10;;;7.80;99.90;;;;;;4988899;28;20210;-62
2023/11/03 02:16:38;;;;;;;3.80;3.60;;;7.80;99.90;;;;;;4975469;28;20200;-63
2023/11/03 02:19:10;;;;;;;4.10;3.80;;;7.70;99.90;;;;;;4981064;28;20653;-63
2023/11/03 02:21:37;;;;;;;3.13;2.97;;;7.70;99.90;;;;;;4973255;28;20230;-64
2023/11/03 02:24:07;;;;;;;2.53;2.43;;;7.80;99.90;;;;;;4974929;28;20683;-63
2023/11/03 02:26:34;;;;;;;3.00;2.90;;;7.80;99.90;;;;;;4984432;28;20202;-63
2023/11/03 02:29:01;;;;;;;2.40;2.30;;;7.80;99.90;;;;;;4986090;28;20196;-63
2023/11/03 02:31:28;;;;;;;2.27;1.93;;;7.80;99.90;;;;;;4987556;28;20779;-63
2023/11/03 02:33:55;;;;;;;1.57;1.47;;;7.80;99.90;;;;;;4988203;28;20206;-63
2023/11/03 02:36:23;;;;;;;1.97;1.70;;;;;;;;;;4980900;28;20202;-64
2023/11/03 02:38:51;;;;;;;1.93;1.83;;;7.80;99.90;;;;;;4979998;28;20309;-63
2023/11/03 02:41:19;;;;;;;0.93;0.93;;;;;;;;;;4985953;28;20284;-63
2023/11/03 02:43:46;;;;;;;1.93;1.30;;;7.60;99.90;;;;;;4989385;28;20267;-63
2023/11/03 02:46:14;;;;;;;1.73;0.90;;;;;;;;;;4984186;28;20698;-63
2023/11/03 02:48:41;;;;;;;1.23;1.23;;;7.90;99.90;;;;;;4991835;28;20253;-63
2023/11/03 02:51:08;;;;;;;0.70;0.70;;;7.90;99.90;;;;;;4978227;28;20261;-63
2023/11/03 02:53:35;;;;;;;0.90;0.73;;;7.90;99.90;;;;;;4971803;28;20205;-63
2023/11/03 02:56:02;;;;;;;1.63;0.90;;;7.80;99.90;;;;;;4972530;28;20207;-63
2023/11/03 02:58:34;;;;;;;0.93;0.93;;;;;;;;;;4978657;28;20266;-63
2023/11/03 03:01:01;;;;;;;1.47;0.87;;;7.80;99.90;;;;;;4985442;28;20227;-63
2023/11/03 03:03:28;;;;;;;0.63;0.60;;;7.80;99.90;;;;;;4973258;28;20342;-63
2023/11/03 03:05:54;;;;;;;0.83;0.70;;;7.80;99.90;;;;;;4980354;28;20674;-63
2023/11/03 03:08:21;;;;;;;0.60;0.60;;;7.80;99.90;;;;;;4972708;28;20207;-63
2023/11/03 03:10:49;;;;;;;1.00;0.50;;;;;;;;;;4973311;28;20293;-63
2023/11/03 03:13:16;;;;;;;1.73;0.30;;;7.70;99.90;;;;;;4983819;28;20568;-63
2023/11/03 03:15:44;;;;;;;0.43;0.43;;;;;;;;;;4982688;28;20246;-63
2023/11/03 03:18:11;;;;;;;0.67;0.60;;;7.70;99.90;;;;;;4983876;28;20248;-63
2023/11/03 03:20:38;;;;;;;0.97;0.50;;;7.80;99.90;;;;;;4986125;28;20698;-62
2023/11/03 03:23:05;;;;;;;0.50;0.50;;;7.70;99.90;;;;;;4980548;28;20201;-65
2023/11/03 03:25:32;;;;;;;1.23;0.40;;;7.70;99.90;;;;;;4972187;28;20628;-63
2023/11/03 03:27:59;;;;;;;0.40;0.40;;;7.60;99.90;;;;;;4973856;28;20260;-63
2023/11/03 03:30:26;;;;;;;2.30;0.30;;;7.70;99.90;;;;;;4978307;28;20223;-63
2023/11/03 03:32:54;;;;;;;2.57;0.30;;;7.70;99.90;;;;;;4972290;28;20261;-63
2023/11/03 03:35:22;;;;;;;0.20;0.20;;;;;;;;;;4972773;28;20203;-63
2023/11/03 03:37:49;;;;;;;0.77;0.30;;;;;;;;;;4976229;28;20211;-64
2023/11/03 03:40:16;;;;;;;0.50;0.50;;;;;;;;;;4973076;28;20285;-63
2023/11/03 03:42:44;;;;;;;1.33;0.30;;;7.60;99.90;;;;;;4975931;28;20272;-63
2023/11/03 03:45:11;;;;;;;0.43;0.30;;;7.70;99.90;;;;;;4975881;28;20275;-63
2023/11/03 03:47:38;;;;;;;0.47;0.20;;;7.60;99.90;;;;;;4975950;28;20208;-63
2023/11/03 03:50:08;;;;;;;0.30;0.30;;;7.60;99.90;;;;;;4975862;28;20289;-63
2023/11/03 03:52:35;;;;;;;0.27;0.27;;;7.70;99.90;;;;;;4978709;28;20202;-63
2023/11/03 03:55:02;;;;;;;0.30;0.20;;;7.90;99.90;;;;;;4983569;28;20203;-63
2023/11/03 03:57:29;;;;;;;1.80;0.27;;;7.70;99.90;;;;;;4975857;28;20207;-63
2023/11/03 03:59:56;;;;;;;0.10;0.10;;;7.80;99.90;;;;;;4979956;28;20314;-64
2023/11/03 04:02:23;;;;;;;0.73;0.10;;;7.80;99.90;;;;;;4974497;28;20206;-63
2023/11/03 04:04:50;;;;;;;0.27;0.20;;;7.80;99.90;;;;;;4974935;28;20635;-63
2023/11/03 04:07:19;;;;;;;1.43;0.20;;;7.80;99.90;;;;;;4975649;28;20215;-63
2023/11/03 04:09:46;;;;;;;0.30;0.30;;;7.70;99.90;;;;;;4974785;28;20681;-63
2023/11/03 04:12:13;;;;;;;1.27;0.43;;;7.70;99.90;;;;;;4974822;28;20203;-64
2023/11/03 04:14:40;;;;;;;0.50;0.30;;;7.70;99.90;;;;;;4981683;28;20206;-63
2023/11/03 04:17:07;;;;;;;0.63;0.40;;;7.70;99.90;;;;;;4956111;28;20695;-64
2023/11/03 04:19:34;;;;;;;1.37;0.37;;;;;;;;;;4956125;29;20223;-64
2023/11/03 04:22:01;;;;;;;0.40;0.30;;;7.80;99.90;;;;;;4977585;28;20209;-63
2023/11/03 04:24:30;;;;;;;0.70;0.40;;;;;;;;;;4979652;28;20210;-63
2023/11/03 04:26:56;;;;;;;1.60;0.70;;;7.80;99.90;;;;;;4986538;28;20253;-63
2023/11/03 04:29:24;;;;;;;1.00;0.60;;;;;;;;;;4994717;28;20735;-63
2023/11/03 04:31:52;;;;;;;0.97;0.97;;;;;;;;;;4988783;28;20273;-63
2023/11/03 04:34:19;;;;;;;0.50;0.50;;;;;;;;;;4971066;28;20206;-63
2023/11/03 04:36:46;;;;;;;2.20;0.57;;;8.00;99.90;;;;;;4978230;28;20207;-64
2023/11/03 04:39:13;;;;;;;1.40;0.50;;;7.90;99.90;;;;;;4973195;28;20215;-63
2023/11/03 04:41:41;;;;;;;1.40;0.30;;;7.90;99.90;;;;;;4973016;28;20231;-63
2023/11/03 04:44:08;;;;;;;1.93;0.70;;;8.00;99.90;;;;;;4973254;28;20202;-63
2023/11/03 04:46:35;;;;;;;1.47;0.47;;;8.00;99.90;;;;;;4981112;28;20265;-63
2023/11/03 04:49:03;;;;;;;1.33;0.40;;;8.00;99.90;;;;;;4975157;28;20663;-63
2023/11/03 04:51:30;;;;;;;1.33;0.70;;;;;;;;;;4974021;28;20281;-62
2023/11/03 04:53:58;;;;;;;0.87;0.33;;;;;;;;;;4973941;28;20241;-64
2023/11/03 04:56:30;;;;;;;0.40;0.40;;;;;;;;;;4973895;28;20309;-63
2023/11/03 04:58:59;;;;;;;0.40;0.40;;;;;;;;;;4973325;28;20223;-64
2023/11/03 05:01:31;;;;;;;0.60;0.50;;;;;;;;;;4974074;28;20268;-62
2023/11/03 05:03:58;;;;;;;1.13;0.50;;;;;;;;;;4973994;28;20678;-64
2023/11/03 05:06:28;;;;;;;2.47;0.37;;;;;;;;;;4975483;28;20208;-64
2023/11/03 05:08:56;;;;;;;1.03;0.50;;;;;;;;;;4973815;28;20280;-64
2023/11/03 05:11:26;;;;;;;2.30;0.30;;;7.70;99.90;;;;;;4974102;28;20313;-64
2023/11/03 05:13:54;;;;;;;3.10;0.50;;;;;;;;;;4973797;28;20667;-64
2023/11/03 05:16:26;;;;;;;2.10;0.50;;;;;;;;;;4974173;28;20620;-63
2023/11/03 05:18:53;;;;;;;1.13;0.50;;;;;;;;;;4972931;28;20206;-63
2023/11/03 05:21:25;;;;;;;1.70;0.93;;;7.60;99.90;;;;;;4974073;28;20308;-64
2023/11/03 05:23:52;;;;;;;1.17;0.20;;;7.70;99.90;;;;;;4973593;28;20202;-64
2023/11/03 05:26:23;;;;;;;0.37;0.37;;;;;;;;;;4974277;28;20211;-64
2023/11/03 05:28:51;;;;;;;1.93;0.70;;;7.70;99.90;;;;;;4973033;28;20587;-64
2023/11/03 05:31:19;;;;;;;2.50;0.40;;;7.70;99.90;;;;;;4973784;28;20234;-64
2023/11/03 05:33:47;;;;;;;3.30;0.70;;;7.80;99.90;;;;;;4973224;28;20206;-63
2023/11/03 05:36:15;;;;;;;2.83;0.50;;;8.10;99.90;;;;;;4973692;28;20208;-64
2023/11/03 05:38:42;;;;;;;1.40;0.20;;;;;;;;;;4981935;28;20206;-63
2023/11/03 05:41:09;;;;;;;3.40;0.20;;;7.90;99.90;;;;;;4977347;28;20666;-63
2023/11/03 05:43:36;;;;;;;0.30;0.30;;;8.00;99.90;;;;;;4975798;28;20722;-64
2023/11/03 05:46:04;;;;;;;4.63;0.30;;;;;;;;;;4973445;28;20210;-63
2023/11/03 05:48:31;;;;;;;0.10;0.10;;;7.80;99.90;;;;;;4979647;28;20670;-64
2023/11/03 05:50:59;;;;;;;0.20;0.10;;;7.80;99.90;;;;;;4974284;28;20775;-64
2023/11/03 05:53:26;;;;;;;1.40;0.10;;;7.70;99.90;;;;;;4971724;28;20214;-63
2023/11/03 05:55:53;;;;;;;0.00;0.00;;;7.40;99.90;;;;;;4972909;28;20206;-64
2023/11/03 05:58:20;;;;;;;0.13;0.03;;;7.60;99.90;;;;;;4972595;28;20264;-63
2023/11/03 06:00:47;;;;;;;3.03;0.37;;;7.70;99.90;;;;;;4975608;28;20221;-64
2023/11/03 06:03:14;;;;;;;0.10;0.10;;;7.30;99.90;;;;;;4973175;28;20199;-63
2023/11/03 06:05:41;;;;;;;0.27;0.10;;;7.20;99.90;;;;;;4972911;28;20208;-63
2023/11/03 06:08:09;;;;;;;0.40;0.10;;;7.50;99.90;;;;;;4970460;28;20210;-63
2023/11/03 06:10:37;;;;;;;0.50;0.10;;;;;;;;;;4971680;28;20714;-62
2023/11/03 06:13:05;;;;;;;0.87;0.10;;;6.80;99.90;;;;;;4972846;28;20243;-63
2023/11/03 06:15:32;;;;;;;0.20;0.20;;;;;;;;;;4972707;28;20217;-63
2023/11/03 06:17:59;;;;;;;0.67;0.20;;;6.90;99.90;;;;;;4972720;28;20206;-63
2023/11/03 06:20:26;;;;;;;0.63;0.20;;;6.90;99.90;;;;;;4973047;28;20229;-64
2023/11/03 06:22:53;;;;;;;0.50;0.10;;;6.90;99.90;;;;;;4973167;28;20636;-63
2023/11/03 06:25:21;;;;;;;0.97;0.10;;;6.90;99.90;;;;;;4972450;28;20210;-64
2023/11/03 06:27:48;;;;;;;1.30;0.10;;;6.90;99.90;;;;;;4972644;28;20729;-63
2023/11/03 06:30:16;;;;;;;0.13;0.10;;;7.00;99.90;;;;;;4971627;28;20222;-63
2023/11/03 06:32:42;;;;;;;2.20;0.17;;;7.00;99.90;;;;;;4972539;28;20240;-64
2023/11/03 06:35:10;;;;;;;0.10;0.10;;;6.90;99.90;;;;;;4969507;28;20605;-63
2023/11/03 06:37:37;;;;;;;0.30;0.23;;;;;;;;;;4973308;28;20319;-64
2023/11/03 06:40:05;;;;;;;2.40;0.37;;;6.80;99.90;;;;;;4961690;28;20230;-63
2023/11/03 06:42:34;;;;;;;2.23;0.10;;;6.90;99.90;;;;;;4963081;28;20211;-64
2023/11/03 06:45:01;;;;;;;0.90;0.33;;;;;;;;;;4959194;28;20262;-64
2023/11/03 06:47:28;;;;;;;0.83;0.30;;;;;;;;;;4960632;28;20210;-63
2023/11/03 06:49:55;;;;;;;0.30;0.13;;;6.90;99.90;;;;;;4966567;28;20222;-63
2023/11/03 06:52:22;;;;;;;0.80;0.40;;;6.90;99.90;;;;;;4961993;28;20215;-64
2023/11/03 06:54:49;;;;;;;0.30;0.20;;;6.90;99.90;;;;;;4960428;28;20203;-63
2023/11/03 06:57:16;;;;;;;1.47;0.27;;;6.90;99.90;;;;;;4966014;28;20210;-63
2023/11/03 06:59:45;;;;;;;1.40;0.20;;;6.80;99.90;;;;;;4959528;28;20745;-62
2023/11/03 07:02:12;;;;;;;0.30;0.10;;;6.80;99.90;;;;;;4959065;28;20208;-63
2023/11/03 07:04:40;;;;;;;0.50;0.20;;;6.70;99.90;;;;;;4961216;28;20253;-63
2023/11/03 07:07:07;;;;;;;1.23;0.20;;;6.70;99.90;;;;;;4963586;28;20210;-64
2023/11/03 07:09:35;;;;;;;0.10;0.10;;;6.60;99.90;;;;;;4977554;28;20207;-63
2023/11/03 07:12:02;;;;;;;1.43;0.37;;;6.60;99.90;;;;;;4977521;28;20678;-63
2023/11/03 07:14:29;;;;;;;1.00;0.87;;;6.60;99.90;;;;;;4982112;28;20276;-63
2023/11/03 07:16:58;;;;;;;0.60;0.50;;;6.60;99.90;;;;;;4985225;28;20779;-63
2023/11/03 07:19:25;;;;;;;2.13;0.20;;;6.60;99.90;;;;;;4981838;28;20645;-63
2023/11/03 07:21:54;;;;;;;1.23;0.20;;;6.70;99.90;;;;;;4980440;28;20232;-63
2023/11/03 07:24:22;;;;;;;0.60;0.40;;;6.60;99.90;;;;;;4975787;28;20260;-63
2023/11/03 07:26:50;;;;;;;0.20;0.20;;;6.70;99.90;;;;;;4977972;28;20211;-63
2023/11/03 07:29:17;;;;;;;0.77;0.40;;;;;;;;;;4982106;28;20745;-64
2023/11/03 07:31:45;;;;;;;0.40;0.40;;;;;;;;;;4975976;28;20253;-63
2023/11/03 07:34:13;;;;;;;1.33;0.27;;;;;;;;;;4976075;28;20210;-63
2023/11/03 07:36:40;;;;;;;2.57;0.20;;;;;;;;;;4977172;28;20213;-63
2023/11/03 07:39:08;;;;;;;0.97;0.30;;;6.80;99.90;;;;;;4975638;28;20206;-64
2023/11/03 07:41:36;;;;;;;0.30;0.30;;;;;;;;;;4975621;28;20230;-63
2023/11/03 07:44:03;;;;;;;0.30;0.20;;;;;;;;;;4978576;28;20622;-64
2023/11/03 07:46:34;;;;;;;0.40;0.40;;;;;;;;;;4975912;28;20293;-63
2023/11/03 07:49:01;;;;;;;2.03;0.37;;;;;;;;;;4975776;28;20246;-63
2023/11/03 07:51:30;;;;;;;1.50;0.30;;;;;;;;;;4975529;28;20221;-63
2023/11/03 07:53:57;;;;;;;0.30;0.30;;;6.80;99.90;;;;;;4973690;28;20233;-64
2023/11/03 07:56:25;;;;;;;1.53;0.27;;;;;;;;;;4976354;28;20239;-63
2023/11/03 07:58:52;;;;;;;1.60;0.37;;;6.80;99.90;;;;;;4975391;28;20688;-63
2023/11/03 08:01:19;;;;;;;0.73;0.40;;;6.70;99.90;;;;;;4975436;28;20240;-63
2023/11/03 08:03:47;;;;;;;0.53;0.33;;;6.50;99.90;;;;;;4979077;28;20295;-63
2023/11/03 08:06:14;;;;;;;4.17;0.30;;;;;;;;;;4975291;28;20243;-63
2023/11/03 08:08:43;;;;;;;0.50;0.50;;;6.70;99.90;;;;;;4974244;28;20686;-64
2023/11/03 08:11:09;;;;;;;0.63;0.50;;;6.80;99.90;;;;;;4960739;28;20636;-63
2023/11/03 08:13:37;;;;;;;0.70;0.70;;;6.80;99.90;;;;;;4975261;28;20230;-62
2023/11/03 08:16:06;;;;;;;1.90;1.27;;;6.80;99.90;;;;;;4980940;28;20237;-64
2023/11/03 08:18:33;;;;;;;1.90;0.50;;;6.80;99.90;;;;;;4977227;28;20629;-63
2023/11/03 08:21:00;;;;;;;1.00;0.47;;;;;;;;;;4975970;28;20256;-63
2023/11/03 08:23:27;;;;;;;0.83;0.77;;;6.80;99.90;;;;;;4980481;28;20213;-63
2023/11/03 08:25:56;;;;;;;3.80;0.40;;;6.80;99.90;;;;;;4973986;28;20202;-63
2023/11/03 08:28:23;;;;;;;0.50;0.50;;;6.80;99.90;;;;;;4979657;28;20293;-62
2023/11/03 08:30:53;;;;;;;0.93;0.60;;;6.90;99.90;;;;;;4974716;28;20604;-63
2023/11/03 08:33:20;;;;;;;0.93;0.93;;;6.90;99.90;;;;;;4974873;28;20207;-63
2023/11/03 08:35:50;;;;;;;1.33;0.43;;;7.00;99.90;;;;;;4973087;28;20675;-63
2023/11/03 08:38:17;;;;;;;2.53;1.43;;;7.00;99.90;;;;;;4970092;28;20597;-63
2023/11/03 08:40:45;;;;;;;2.80;2.60;;;6.90;99.90;;;;;;4971018;28;20285;-63
2023/11/03 08:43:13;;;;;;;0.50;0.50;;;7.00;99.90;;;;;;4971469;28;20202;-63
2023/11/03 08:45:41;;;;;;;2.47;1.73;;;;;;;;;;4971691;28;20265;-63
2023/11/03 08:48:09;;;;;;;1.80;1.03;;;7.10;99.90;;;;;;4973287;28;20211;-62
2023/11/03 08:50:36;;;;;;;2.10;0.90;;;7.40;99.90;;;;;;4972858;28;20719;-63
2023/11/03 08:53:03;;;;;;;0.97;0.70;;;7.10;99.90;;;;;;4973325;28;20294;-63
2023/11/03 08:55:31;;;;;;;2.23;1.20;;;7.10;99.90;;;;;;4972181;28;20293;-63
2023/11/03 08:57:59;;;;;;;2.50;0.80;;;7.50;99.90;;;;;;4968318;28;21024;-61
2023/11/03 09:00:28;;;;;;;1.00;0.70;;;7.30;99.90;;;;;;4971673;28;20237;-63
2023/11/03 09:02:55;;;;;;;2.57;0.53;;;7.30;99.90;;;;;;4974403;28;20215;-67
2023/11/03 09:05:23;;;;;;;3.07;0.80;;;7.40;99.90;;;;;;4979718;28;20297;-64
2023/11/03 09:07:50;;;;;;;2.83;0.47;;;;;;;;;;4979000;28;20206;-65
2023/11/03 09:10:17;;;;;;;0.73;0.50;;;7.30;99.90;;;;;;4973307;28;20230;-65
2023/11/03 09:12:44;;;;;;;0.50;0.50;;;;;;;;;;4982106;28;20669;-65
2023/11/03 09:15:11;;;;;;;1.07;0.70;;;7.30;99.90;;;;;;4972051;28;20258;-65
2023/11/03 09:17:45;;;;;;;4.20;0.63;;;7.30;99.90;;;;;;4974335;28;20238;-66
2023/11/03 09:20:14;;;;;;;1.23;0.43;;;;;;;;;;4972173;28;20261;-65
2023/11/03 09:22:42;;;;;;;3.37;0.60;;;;;;;;;;4973963;28;20289;-66
2023/11/03 09:25:11;;;;;;;1.83;1.07;;;;;;;;;;4973135;28;20243;-62
2023/11/03 09:27:38;;;;;;;2.03;0.90;;;7.50;99.90;;;;;;4972890;28;20221;-62
2023/11/03 09:30:10;;;;;;;2.97;0.60;;;;;;;;;;4980890;28;20285;-62
2023/11/03 09:32:37;;;;;;;0.90;0.70;;;8.00;99.90;;;;;;4968499;28;20253;-63
2023/11/03 09:35:06;;;;;;;1.00;0.57;;;7.60;99.90;;;;;;4963312;28;20210;-62
2023/11/03 09:37:33;;;;;;;1.50;0.70;;;7.60;99.90;;;;;;4968226;28;20761;-63
2023/11/03 09:40:00;;;;;;;1.20;0.60;;;7.70;99.90;;;;;;4970035;28;20230;-63
2023/11/03 09:42:27;;;;;;;1.80;1.10;;;7.60;99.90;;;;;;4979205;28;20210;-62
2023/11/03 09:44:57;;;;;;;1.37;1.27;;;7.60;99.90;;;;;;4983598;28;20585;-62
2023/11/03 09:47:25;;;;;;;2.80;1.60;;;7.70;99.90;;;;;;4977751;28;20202;-62
2023/11/03 09:49:55;;;;;;;2.60;1.60;;;7.70;99.90;;;;;;4985088;28;20222;-62
2023/11/03 09:52:25;;;;;;;1.50;1.17;;;7.70;99.90;;;;;;4984616;28;20210;-63
2023/11/03 09:54:54;;;;;;;1.67;1.30;;;7.90;99.90;;;;;;4973391;28;20682;-63
2023/11/03 09:57:21;;;;;;;0.70;0.70;;;;;;;;;;4973194;28;20243;-63
2023/11/03 09:59:49;;;;;;;0.33;0.30;;;;;;;;;;4981632;28;20231;-62
2023/11/03 10:02:19;;;;;;;0.73;0.73;;;7.90;99.90;;;;;;4976373;28;20229;-62
2023/11/03 10:04:46;;;;;;;1.90;0.70;;;8.00;99.90;;;;;;4973451;28;20213;-62
2023/11/03 10:07:14;;;;;;;1.87;0.50;;;7.90;99.90;;;;;;4973364;28;20650;-62
2023/11/03 10:09:44;;;;;;;2.20;0.60;;;8.00;99.90;;;;;;4973424;28;20211;-62
2023/11/03 10:12:12;;;;;;;2.10;0.40;;;8.00;99.90;;;;;;4978752;28;20337;-62
2023/11/03 10:14:39;;;;;;;1.43;0.27;;;;;;;;;;4984441;28;20261;-62
2023/11/03 10:17:09;;;;;;;0.77;0.50;;;7.80;99.90;;;;;;4984866;28;20230;-63
2023/11/03 10:19:36;;;;;;;2.63;1.67;;;7.80;99.90;;;;;;4973241;28;20723;-63
2023/11/03 10:22:08;;;;;;;0.20;0.20;;;7.80;99.90;;;;;;4974615;28;20218;-61
2023/11/03 10:24:35;;;;;;;2.43;0.73;;;7.80;99.90;;;;;;4984335;28;20634;-62
2023/11/03 10:27:04;;;;;;;1.20;0.40;;;7.80;99.90;;;;;;4986795;28;20207;-63
2023/11/03 10:29:32;;;;;;;1.27;0.47;;;7.90;99.90;;;;;;4977836;28;20206;-63
2023/11/03 10:31:59;;;;;;;0.50;0.30;;;7.90;99.90;;;;;;4981174;28;20206;-63
2023/11/03 10:34:26;;;;;;;1.43;1.33;;;;;;;;;;4971401;28;20640;-62
2023/11/03 10:36:57;;;;;;;0.63;0.30;;;8.00;99.90;;;;;;4981713;28;20273;-63
2023/11/03 10:39:25;;;;;;;1.77;0.50;;;;;;;;;;4983105;28;20291;-62
2023/11/03 10:41:52;;;;;;;2.13;0.30;;;8.20;99.90;;;;;;4978652;28;20648;-63
2023/11/03 10:44:25;;;;;;;5.60;0.73;;;8.30;99.90;;;;;;4987166;28;20255;-63
2023/11/03 10:46:55;;;;;;;0.90;0.37;;;8.40;99.90;;;;;;4973011;28;20210;-63
2023/11/03 10:49:30;;;;;;;1.50;0.57;;;8.40;99.90;;;;;;4984436;28;20248;-63
2023/11/03 10:52:10;;;;;;;1.23;0.47;;;8.40;99.90;;;;;;4984040;28;20294;-63
2023/11/03 10:54:41;;;;;;;0.40;0.40;;;;;;;;;;4976774;28;20226;-63
2023/11/03 10:57:11;;;;;;;1.60;1.50;;;8.20;99.90;;;;;;4984298;28;20737;-63
2023/11/03 10:59:41;;;;;;;0.97;0.70;;;8.50;99.90;;;;;;4977939;28;20243;-62
2023/11/03 11:02:15;;;;;;;1.20;0.50;;;8.80;99.90;;;;;;4972963;28;20273;-62
2023/11/03 11:04:47;;;;;;;3.90;0.40;;;;;;;;;;4972139;28;20339;-62
2023/11/03 11:07:19;;;;;;;1.00;0.70;;;9.10;99.90;;;;;;4971635;28;20199;-63
2023/11/03 11:09:47;;;;;;;0.73;0.70;;;8.80;99.90;;;;;;4980594;28;20659;-62
2023/11/03 11:12:14;;;;;;;1.23;0.50;;;8.80;99.90;;;;;;4953544;28;20208;-63
2023/11/03 11:14:43;;;;;;;0.20;0.20;;;8.80;99.90;;;;;;4980281;28;20236;-63
2023/11/03 11:17:11;;;;;;;0.83;0.20;;;8.60;99.90;;;;;;4990145;28;20207;-62
2023/11/03 11:19:43;;;;;;;1.30;0.40;;;8.50;99.90;;;;;;4980707;28;20214;-62
2023/11/03 11:22:14;;;;;;;0.50;0.50;;;8.60;99.90;;;;;;4985329;28;20309;-63
2023/11/03 11:24:42;;;;;;;0.30;0.20;;;8.60;99.90;;;;;;4983763;28;20207;-63
2023/11/03 11:27:13;;;;;;;0.63;0.30;;;8.50;99.90;;;;;;4972883;28;20519;-63
2023/11/03 11:29:42;;;;;;;0.13;0.13;;;8.60;99.90;;;;;;4969560;28;20291;-63
2023/11/03 11:32:11;;;;;;;0.30;0.20;;;;;;;;;;4979992;28;20664;-63
2023/11/03 11:34:39;;;;;;;1.35;0.28;;;;;;;;;;4968915;28;20467;-58
2023/11/03 11:37:24;;;;;;;0.60;0.60;;;;;;;;;;4974234;28;20244;-58
2023/11/03 11:39:53;;;;;;;0.70;0.70;;;8.60;99.90;;;;;;4971709;28;20727;-58
2023/11/03 11:42:21;;;;;;;1.23;0.50;;;8.60;99.90;;;;;;4975619;28;20321;-58
2023/11/03 11:44:52;;;;;;;2.10;0.80;;;8.60;99.90;;;;;;4983208;28;20227;-58
2023/11/03 11:47:23;;;;;;;0.70;0.63;;;;;;;;;;4980492;28;20234;-57
2023/11/03 11:49:50;;;;;;;2.77;1.77;;;;;;;;;;4970765;28;20238;-59
2023/11/03 11:52:19;;;;;;;2.30;0.63;;;;;;;;;;4978595;28;20211;-58
2023/11/03 11:54:47;;;;;;;2.00;1.03;;;;;;;;;;4987532;28;20205;-56
2023/11/03 11:57:14;;;;;;;1.10;0.40;;;8.60;99.90;;;;;;4977415;28;20234;-56
2023/11/03 11:59:43;;;;;;;1.80;0.30;;;;;;;;;;4982382;28;20286;-56
2023/11/03 12:02:11;;;;;;;0.50;0.50;;;8.90;99.90;;;;;;4980446;28;20605;-56
2023/11/03 12:04:41;;;;;;;1.83;0.30;;;;;;;;;;4983070;28;20210;-56
2023/11/03 12:07:08;;;;;;;0.40;0.40;;;;;;;;;;4980457;28;20209;-57
2023/11/03 12:09:37;;;;;;;0.30;0.30;;;;;;;;;;4983545;28;20678;-56
2023/11/03 12:12:05;;;;;;;0.30;0.30;;;;;;;;;;4974512;28;20257;-56
2023/11/03 12:14:32;;;;;;;0.30;0.30;;;;;;;;;;4973100;28;20629;-56
2023/11/03 12:17:00;;;;;;;0.93;0.30;;;8.70;99.90;;;;;;4972644;28;20203;-56
2023/11/03 12:19:28;;;;;;;0.93;0.37;;;9.10;99.90;;;;;;4975185;28;20218;-56
2023/11/03 12:21:55;;;;;;;1.63;0.57;;;9.00;99.90;;;;;;4973841;28;20277;-56
2023/11/03 12:24:22;;;;;;;1.00;1.00;;;9.10;99.90;;;;;;4973919;28;20562;-56
2023/11/03 12:26:50;;;;;;;0.40;0.40;;;;;;;;;;4972757;28;20243;-55
2023/11/03 12:29:28;;;;;;;0.97;0.30;;;9.20;99.90;;;;;;4975122;28;20746;-56
2023/11/03 12:31:55;;;;;;;1.27;0.67;;;;;;;;;;4978518;28;20206;-56
2023/11/03 12:34:23;;;;;;;2.50;1.13;;;;;;;;;;4975210;28;20209;-56
2023/11/03 12:36:51;;;;;;;1.13;1.07;;;9.20;99.90;;;;;;4974598;28;20680;-55
2023/11/03 12:39:19;;;;;;;1.80;1.50;;;;;;;;;;4974950;28;20202;-56
2023/11/03 12:42:00;;;;;;;1.53;1.47;;;9.20;99.90;;;;;;4980928;28;20301;-58
2023/11/03 12:44:27;;;;;;;1.23;1.13;;;;;;;;;;4968490;28;20213;-55
2023/11/03 12:46:55;;;;;;;1.17;0.97;;;;;;;;;;4980146;28;20610;-55
2023/11/03 12:49:22;;;;;;;0.53;0.53;;;;;;;;;;4976582;28;20315;-56
2023/11/03 12:51:53;;;;;;;0.60;0.60;;;;;;;;;;4978015;28;20282;-56
2023/11/03 12:54:21;;;;;;;1.17;0.50;;;;;;;;;;4979850;28;20726;-56
2023/11/03 12:56:50;;;;;;;0.60;0.47;;;9.30;99.90;;;;;;4978968;28;20199;-56
2023/11/03 12:59:22;;;;;;;2.60;1.10;;;;;;;;;;4975880;28;20233;-56
2023/11/03 13:01:49;;;;;;;2.93;0.50;;;9.20;99.90;;;;;;4974315;28;20223;-56
2023/11/03 13:04:18;;;;;;;2.73;0.40;;;;;;;;;;4976682;28;20203;-57
2023/11/03 13:06:47;;;;;;;1.27;0.50;;;;;;;;;;4975873;28;20243;-56
2023/11/03 13:09:23;;;;;;;1.50;0.37;;;;;;;;;;4975878;28;20686;-56
2023/11/03 13:11:52;;;;;;;1.10;0.40;;;;;;;;;;4974468;28;20218;-56
2023/11/03 13:14:19;;;;;;;0.50;0.50;;;8.80;99.90;;;;;;4975394;28;20239;-56
2023/11/03 13:16:46;;;;;;;0.63;0.43;;;;;;;;;;4974077;28;20666;-56
2023/11/03 13:19:14;;;;;;;3.50;0.63;;;8.90;99.90;;;;;;4980073;28;20211;-56
2023/11/03 13:21:41;;;;;;;0.97;0.40;;;;;;;;;;4978871;28;20935;-56
2023/11/03 13:24:11;;;;;;;1.47;0.97;;;;;;;;;;4974109;28;20929;-56
2023/11/03 13:26:40;;;;;;;2.00;0.53;;;;;;;;;;4976053;28;20666;-56
2023/11/03 13:29:07;;;;;;;0.53;0.53;;;8.50;99.90;;;;;;4975458;28;20297;-56
2023/11/03 13:31:35;;;;;;;2.40;0.50;;;;;;;;;;4970204;28;20227;-56
2023/11/03 13:34:02;;;;;;;2.13;1.87;;;;;;;;;;4967591;28;21258;-58